Time,TemperatureF,DewpointF,PressureIn,WindDirection,WindDirectionDegrees,WindSpeedMPH,WindSpeedGustMPH,Humidity,HourlyPrecipIn,Conditions,Clouds,dailyrainin,SoftwareType,DateUTC
2013-03-11 07:00:00,41.2,33.2,30.14,East,90,0.0,0.0,73,0.00,,,0.00,WUHU216HW,2013-03-11 11:00:00,
2013-03-11 07:05:00,41.4,33.4,30.14,East,90,0.2,0.2,73,0.00,,,0.00,WUHU216HW,2013-03-11 11:05:00,
2013-03-11 07:30:00,41.6,34.6,30.15,ENE,68,0.0,0.0,76,0.00,,,0.00,WUHU216HW,2013-03-11 11:30:00,
2013-03-11 07:35:00,41.6,34.6,30.15,ENE,68,0.0,0.0,76,0.00,,,0.00,WUHU216HW,2013-03-11 11:35:00,
2013-03-11 08:00:00,42.5,36.1,30.14,ENE,68,0.0,0.0,78,0.00,,,0.00,WUHU216HW,2013-03-11 12:00:00,
2013-03-11 08:05:00,42.5,36.1,30.14,ENE,68,0.0,0.0,78,0.00,,,0.00,WUHU216HW,2013-03-11 12:05:00,
2013-03-11 08:30:00,44.6,39.2,30.15,East,90,0.2,0.2,81,0.00,,,0.00,WUHU216HW,2013-03-11 12:30:00,
2013-03-11 08:35:00,44.6,39.2,30.15,East,90,0.2,0.2,81,0.00,,,0.00,WUHU216HW,2013-03-11 12:35:00,
2013-03-11 08:59:00,47.5,41.9,30.15,East,90,0.0,0.0,81,0.00,,,0.00,WUHU216HW,2013-03-11 12:59:00,
2013-03-11 09:00:00,47.5,41.9,30.15,East,90,0.0,0.0,81,0.00,,,0.00,WUHU216HW,2013-03-11 13:00:00,
2013-03-11 09:06:00,47.5,41.9,30.15,East,90,0.0,0.0,81,0.00,,,0.00,WUHU216HW,2013-03-11 13:06:00,
2013-03-11 09:30:00,51.5,46.2,30.15,ESE,113,0.2,0.2,82,0.00,,,0.00,WUHU216HW,2013-03-11 13:30:00,
2013-03-11 09:35:00,51.5,46.2,30.15,ESE,113,0.2,0.2,82,0.00,,,0.00,WUHU216HW,2013-03-11 13:35:00,
2013-03-11 09:59:00,54.4,47.6,30.13,ENE,68,0.2,0.2,78,0.00,,,0.00,WUHU216HW,2013-03-11 13:59:00,
2013-03-11 10:00:00,54.4,47.6,30.13,ENE,68,0.2,0.2,78,0.00,,,0.00,WUHU216HW,2013-03-11 14:00:00,
2013-03-11 10:05:00,54.4,47.6,30.13,ENE,68,0.2,0.2,78,0.00,,,0.00,WUHU216HW,2013-03-11 14:05:00,
2013-03-11 10:30:00,59.0,50.8,30.13,East,90,0.4,0.4,74,0.00,,,0.00,WUHU216HW,2013-03-11 14:30:00,
2013-03-11 10:35:00,59.0,50.8,30.13,East,90,0.4,0.4,74,0.00,,,0.00,WUHU216HW,2013-03-11 14:35:00,
2013-03-11 11:00:00,63.0,51.4,30.11,SE,135,1.8,1.8,66,0.00,,,0.00,WUHU216HW,2013-03-11 15:00:00,
2013-03-11 11:05:00,63.0,51.4,30.11,SE,135,1.8,1.8,66,0.00,,,0.00,WUHU216HW,2013-03-11 15:05:00,
2013-03-11 11:30:00,65.9,52.5,30.11,ENE,68,1.6,1.6,62,0.00,,,0.00,WUHU216HW,2013-03-11 15:30:00,
2013-03-11 11:35:00,65.9,52.5,30.11,ENE,68,1.6,1.6,62,0.00,,,0.00,WUHU216HW,2013-03-11 15:35:00,
2013-03-11 11:59:00,69.3,52.9,30.11,South,180,1.6,1.6,56,0.00,,,0.00,WUHU216HW,2013-03-11 15:59:00,
2013-03-11 12:00:00,69.3,52.9,30.11,South,180,1.6,1.6,56,0.00,,,0.00,WUHU216HW,2013-03-11 16:00:00,
2013-03-11 12:05:00,69.3,52.9,30.11,South,180,1.6,1.6,56,0.00,,,0.00,WUHU216HW,2013-03-11 16:05:00,
2013-03-11 12:30:00,70.4,52.4,30.10,SE,135,4.0,4.0,53,0.00,,,0.00,WUHU216HW,2013-03-11 16:30:00,
2013-03-11 12:35:00,70.4,52.4,30.10,SE,135,4.0,4.0,53,0.00,,,0.00,WUHU216HW,2013-03-11 16:35:00,
2013-03-11 12:59:00,69.8,51.4,30.09,SSE,158,3.4,3.4,52,0.00,,,0.00,WUHU216HW,2013-03-11 16:59:00,
2013-03-11 13:00:00,69.8,51.4,30.09,SSE,158,3.4,3.4,52,0.00,,,0.00,WUHU216HW,2013-03-11 17:00:00,
2013-03-11 13:05:00,69.8,51.4,30.09,SSE,158,3.4,3.4,52,0.00,,,0.00,WUHU216HW,2013-03-11 17:05:00,
2013-03-11 13:30:00,70.2,52.2,30.09,SSW,203,5.6,5.6,53,0.00,,,0.00,WUHU216HW,2013-03-11 17:30:00,
2013-03-11 13:35:00,70.2,52.2,30.09,SSW,203,5.6,5.6,53,0.00,,,0.00,WUHU216HW,2013-03-11 17:35:00,
2013-03-11 13:59:00,68.9,53.0,30.07,SSE,158,1.1,1.1,57,0.00,,,0.00,WUHU216HW,2013-03-11 17:59:00,
2013-03-11 14:00:00,68.9,53.0,30.07,SSE,158,1.1,1.1,57,0.00,,,0.00,WUHU216HW,2013-03-11 18:00:00,
2013-03-11 14:05:00,68.9,53.0,30.07,SSE,158,1.1,1.1,57,0.00,,,0.00,WUHU216HW,2013-03-11 18:05:00,
2013-03-11 14:30:00,68.2,53.4,30.05,ESE,113,1.6,1.6,59,0.00,,,0.00,WUHU216HW,2013-03-11 18:30:00,
2013-03-11 14:35:00,68.2,53.4,30.05,ESE,113,1.6,1.6,59,0.00,,,0.00,WUHU216HW,2013-03-11 18:35:00,
2013-03-11 14:59:00,69.1,53.7,30.03,SE,135,1.1,1.1,58,0.00,,,0.00,WUHU216HW,2013-03-11 18:59:00,
2013-03-11 15:00:00,69.1,53.7,30.03,SE,135,1.1,1.1,58,0.00,,,0.00,WUHU216HW,2013-03-11 19:00:00,
2013-03-11 15:05:00,69.1,53.7,30.03,SE,135,1.1,1.1,58,0.00,,,0.00,WUHU216HW,2013-03-11 19:05:00,
2013-03-11 15:30:00,70.0,54.6,30.03,ESE,113,2.7,2.7,58,0.00,,,0.00,WUHU216HW,2013-03-11 19:30:00,
2013-03-11 15:35:00,70.0,54.6,30.03,ESE,113,2.7,2.7,58,0.00,,,0.00,WUHU216HW,2013-03-11 19:35:00,
2013-03-11 16:00:00,70.0,54.6,30.01,SSE,158,3.6,3.6,58,0.00,,,0.00,WUHU216HW,2013-03-11 20:00:00,
2013-03-11 16:05:00,70.0,54.6,30.01,SSE,158,3.6,3.6,58,0.00,,,0.00,WUHU216HW,2013-03-11 20:05:00,
2013-03-11 16:30:00,69.3,53.9,30.00,WSW,248,0.2,0.2,58,0.00,,,0.00,WUHU216HW,2013-03-11 20:30:00,
2013-03-11 16:35:00,69.3,53.9,30.00,WSW,248,0.2,0.2,58,0.00,,,0.00,WUHU216HW,2013-03-11 20:35:00,
2013-03-11 17:00:00,68.8,54.4,29.99,South,180,2.7,2.7,60,0.00,,,0.00,WUHU216HW,2013-03-11 21:00:00,
2013-03-11 17:05:00,68.8,54.4,29.99,South,180,2.7,2.7,60,0.00,,,0.00,WUHU216HW,2013-03-11 21:05:00,
2013-03-11 17:30:00,68.0,54.9,30.00,SE,135,4.0,4.0,63,0.00,,,0.00,WUHU216HW,2013-03-11 21:30:00,
2013-03-11 17:35:00,68.0,54.9,30.00,SE,135,4.0,4.0,63,0.00,,,0.00,WUHU216HW,2013-03-11 21:35:00,
2013-03-11 17:59:00,66.2,54.1,30.00,ESE,113,3.4,3.4,65,0.00,,,0.00,WUHU216HW,2013-03-11 21:59:00,
2013-03-11 18:00:00,66.2,54.1,30.00,ESE,113,3.4,3.4,65,0.00,,,0.00,WUHU216HW,2013-03-11 22:00:00,
2013-03-11 18:05:00,66.2,54.1,30.00,ESE,113,3.4,3.4,65,0.00,,,0.00,WUHU216HW,2013-03-11 22:05:00,
2013-03-11 18:30:00,65.5,54.3,30.00,SE,135,0.4,0.4,67,0.00,,,0.00,WUHU216HW,2013-03-11 22:30:00,
2013-03-11 18:35:00,65.5,54.3,30.00,SE,135,0.4,0.4,67,0.00,,,0.00,WUHU216HW,2013-03-11 22:35:00,
2013-03-11 18:59:00,65.2,54.7,29.99,SSE,158,7.2,7.2,69,0.00,,,0.00,WUHU216HW,2013-03-11 22:59:00,
2013-03-11 19:00:00,65.2,54.7,29.99,SSE,158,7.2,7.2,69,0.00,,,0.00,WUHU216HW,2013-03-11 23:00:00,
2013-03-11 19:05:00,65.2,54.7,29.99,SSE,158,7.2,7.2,69,0.00,,,0.00,WUHU216HW,2013-03-11 23:05:00,
2013-03-11 19:30:00,63.7,54.5,29.99,SSW,203,0.2,0.2,72,0.00,,,0.00,WUHU216HW,2013-03-11 23:30:00,
2013-03-11 19:35:00,63.7,54.5,29.99,SSW,203,0.2,0.2,72,0.00,,,0.00,WUHU216HW,2013-03-11 23:35:00,
2013-03-11 19:59:00,62.5,53.6,29.98,SSE,158,0.0,0.0,73,0.00,,,0.00,WUHU216HW,2013-03-11 23:59:00,
2013-03-11 20:00:00,62.5,53.6,29.98,SSE,158,0.0,0.0,73,0.00,,,0.00,WUHU216HW,2013-03-12 00:00:00,
2013-03-11 20:05:00,62.5,53.6,29.98,SSE,158,0.0,0.0,73,0.00,,,0.00,WUHU216HW,2013-03-12 00:05:00,
2013-03-11 20:30:00,61.6,52.8,29.97,SSE,158,0.4,0.4,73,0.00,,,0.00,WUHU216HW,2013-03-12 00:30:00,
2013-03-11 20:35:00,61.6,52.8,29.97,SSE,158,0.4,0.4,73,0.00,,,0.00,WUHU216HW,2013-03-12 00:35:00,
2013-03-11 20:59:00,61.6,53.2,29.96,SE,135,0.0,0.0,74,0.00,,,0.00,WUHU216HW,2013-03-12 00:59:00,
2013-03-11 21:00:00,61.6,53.2,29.96,SE,135,0.0,0.0,74,0.00,,,0.00,WUHU216HW,2013-03-12 01:00:00,
2013-03-11 21:05:00,61.6,53.2,29.96,SE,135,0.0,0.0,74,0.00,,,0.00,WUHU216HW,2013-03-12 01:05:00,
2013-03-11 21:30:00,61.7,53.4,29.96,ESE,113,0.2,0.2,74,0.00,,,0.00,WUHU216HW,2013-03-12 01:30:00,
2013-03-11 21:35:00,61.7,53.4,29.96,ESE,113,0.2,0.2,74,0.00,,,0.00,WUHU216HW,2013-03-12 01:35:00,
2013-03-11 21:59:00,61.4,53.4,29.97,SSW,203,1.3,1.3,75,0.00,,,0.00,WUHU216HW,2013-03-12 01:59:00,
2013-03-11 22:00:00,61.4,53.4,29.97,SSW,203,1.3,1.3,75,0.00,,,0.00,WUHU216HW,2013-03-12 02:00:00,
2013-03-11 22:05:00,61.4,53.4,29.97,SSW,203,1.3,1.3,75,0.00,,,0.00,WUHU216HW,2013-03-12 02:05:00,